Latest Weather Observations for Mangalore

IDV60801

Issued at 9:03 am EDT Friday 24 March 2017 (issued every 30 minutes, with the page automatically refreshed every 10 minutes)

About weather observations | Map of weather stations | Latest weather observations for VIC | Other Formats
Station Details ID: 088109 Name: MANGALORE AIRPORT Lat: -36.89 Lon: 145.19 Height: 140.8 m
Data from the previous 72 hours. | See also: Recent months at Mangalore
Date/Time
EDT
Temp
°C
App
Temp
°C
Dew
Point
°C
Rel
Hum
%
Delta-T
°C
Wind Press
QNH
hPa
Press
MSL
hPa
Rain since
9am
mm
Dir  Spd
km/h
Gust
km/h
Spd
kts
Gust
kts
24/09:00am 14.6 12.8 13.3 92 0.7 SSW 15 19 8 10 1019.3 1018.9 0.0
24/08:30am 13.5 12.0 13.0 97 0.3 SSW 13 17 7 9 1019.3 1018.9 0.0
24/08:00am 13.1 11.0 12.5 96 0.3 SSW 15 20 8 11 1018.9 1018.5 0.0
24/07:30am 12.9 11.5 12.3 96 0.3 SSW 11 15 6 8 1018.4 1018.1 0.0
24/07:00am 12.8 11.0 12.0 95 0.4 SW 13 15 7 8 1018.3 1018.0 0.0
24/06:30am 13.3 11.6 12.4 94 0.5 SSW 13 15 7 8 1017.9 1017.6 0.0
24/06:00am 13.5 11.8 12.4 93 0.6 SSW 13 15 7 8 1017.9 1017.6 0.0
24/05:30am 13.7 12.0 12.6 93 0.6 SSW 13 19 7 10 1018.0 1017.7 0.0
24/05:00am 13.9 11.9 12.6 92 0.7 SSW 15 20 8 11 1018.0 1017.7 0.0
24/04:30am 14.1 12.5 12.7 91 0.8 SSW 13 19 7 10 1018.2 1017.9 0.0
24/04:00am 14.2 12.5 12.6 90 0.9 SSW 13 17 7 9 1018.2 1017.9 0.0
24/03:30am 14.6 13.5 13.0 90 0.9 SSW 11 17 6 9 1018.5 1018.2 0.0
24/03:00am 14.9 13.8 13.1 89 1.0 SW 11 15 6 8 1018.9 1018.5 0.0
24/02:30am 15.1 14.0 13.1 88 1.1 SSW 11 15 6 8 1018.9 1018.5 0.0
24/02:00am 15.7 14.2 13.2 85 1.4 SSW 13 17 7 9 1018.9 1018.5 0.0
24/01:30am 15.8 14.4 13.3 85 1.4 S 13 19 7 10 1019.0 1018.6 0.0
24/01:00am 16.2 14.8 13.5 84 1.5 SSW 13 17 7 9 1019.2 1018.8 0.0
24/12:30am 16.7 15.4 13.6 82 1.8 SSW 13 15 7 8 1019.3 1018.9 0.0
24/12:00am 17.4 16.5 13.7 79 2.1 SSW 11 15 6 8 1019.2 1018.8 0.0
 
Date/Time
EDT
Temp
°C
App
Temp
°C
Dew
Point
°C
Rel
Hum
%
Delta-T
°C
Wind Press
QNH
hPa
Press
MSL
hPa
Rain since
9am
mm
Dir  Spd
km/h
Gust
km/h
Spd
kts
Gust
kts
23/11:30pm 17.8 17.0 13.9 78 2.2 SSW 11 15 6 8 1019.0 1018.6 0.0
23/11:00pm 18.4 18.0 14.1 76 2.5 S 9 15 5 8 1019.2 1018.8 0.0
23/10:30pm 19.1 18.6 13.9 72 3.0 S 9 11 5 6 1019.2 1018.8 0.0
23/10:00pm 19.9 20.0 14.0 69 3.4 S 6 9 3 5 1018.9 1018.5 0.0
23/09:30pm 20.1 19.3 14.0 68 3.5 SSE 11 15 6 8 1018.5 1018.2 0.0
23/09:00pm 20.8 19.6 14.0 65 4.0 S 13 15 7 8 1018.1 1017.8 0.0
23/08:30pm 21.4 20.1 13.8 62 4.4 S 13 17 7 9 1017.7 1017.4 0.0
23/08:00pm 22.2 21.0 14.1 60 4.8 S 13 17 7 9 1017.2 1016.8 0.0
23/07:30pm 22.9 22.1 13.9 57 5.3 S 11 17 6 9 1017.0 1016.6 0.0
23/07:00pm 24.0 22.0 13.8 53 6.0 S 17 20 9 11 1016.8 1016.4 0.0
23/06:30pm 24.7 22.7 13.9 51 6.4 SSE 17 24 9 13 1016.7 1016.3 0.0
23/06:00pm 25.2 23.1 13.7 49 6.8 S 17 24 9 13 1016.5 1016.1 0.0
23/05:30pm 25.7 23.2 13.5 46 7.2 S 19 24 10 13 1016.5 1016.1 0.0
23/05:00pm 26.1 24.2 12.9 44 7.7 S 15 22 8 12 1016.5 1016.1 0.0
23/04:30pm 25.9 23.7 13.4 46 7.4 S 17 24 9 13 1016.8 1016.4 0.0
23/04:00pm 24.8 22.0 12.7 47 7.0 S 19 26 10 14 1016.9 1016.5 0.0
23/03:30pm 24.4 21.9 13.6 51 6.4 SSW 19 24 10 13 1017.0 1016.6 0.0
23/03:00pm 24.3 21.6 13.5 51 6.3 SSW 20 28 11 15 1017.0 1016.6 0.0
23/02:30pm 25.1 22.2 13.0 47 7.1 S 20 28 11 15 1017.3 1017.0 0.0
23/02:00pm 25.6 24.1 13.1 46 7.3 SSW 13 20 7 11 1017.6 1017.3 0.0
23/01:30pm 24.2 21.8 12.5 48 6.7 S 17 26 9 14 1017.9 1017.6 0.0
23/01:00pm 22.9 20.6 13.1 54 5.7 S 17 26 9 14 1018.4 1018.1 0.0
23/12:30pm 22.3 19.8 13.4 57 5.2 S 19 24 10 13 1018.6 1018.3 0.0
23/12:00pm 22.0 19.3 12.8 56 5.3 S 19 26 10 14 1018.9 1018.5 0.0
23/11:30am 21.2 18.2 12.6 58 4.9 S 20 28 11 15 1019.1 1018.7 0.0
23/11:00am 20.4 17.8 13.8 66 3.8 SSW 20 26 11 14 1019.3 1018.9 0.0
23/10:30am 18.9 16.4 13.5 71 3.1 SSW 19 24 10 13 1019.2 1018.8 0.0
23/10:00am 18.5 16.0 13.4 72 2.9 SSW 19 24 10 13 1019.1 1018.7 0.0
23/09:30am 17.6 14.4 13.1 75 2.5 SSW 22 30 12 16 1018.8 1018.4 0.0
23/09:00am 15.9 12.9 12.6 81 1.8 SSW 20 26 11 14 1018.5 1018.2 0.0
23/08:30am 15.8 13.4 12.7 82 1.7 SSW 17 24 9 13 1018.2 1017.9 0.0
23/08:00am 16.0 13.2 12.7 81 1.8 SSW 19 26 10 14 1018.0 1017.7 0.0
23/07:30am 16.0 13.6 12.7 81 1.8 SSW 17 24 9 13 1017.9 1017.6 0.0
23/07:00am 15.5 12.8 12.8 84 1.5 SSW 19 28 10 15 1017.6 1017.3 0.0
23/06:30am 15.2 12.2 12.7 85 1.4 SSW 20 28 11 15 1017.4 1017.1 0.0
23/06:00am 15.3 12.9 12.8 85 1.4 SSW 17 24 9 13 1017.2 1016.8 0.0
23/05:30am 15.4 13.0 12.7 84 1.5 SSW 17 24 9 13 1016.9 1016.5 0.0
23/05:00am 15.7 13.3 12.8 83 1.6 SSW 17 28 9 15 1016.8 1016.4 0.0
23/04:30am 15.9 13.2 12.8 82 1.7 SSW 19 26 10 14 1016.9 1016.5 0.0
23/04:00am 15.8 13.4 12.7 82 1.7 SSW 17 24 9 13 1016.8 1016.4 0.0
23/03:30am 15.8 13.0 12.7 82 1.7 SSW 19 24 10 13 1016.6 1016.2 0.0
23/03:00am 15.9 13.5 12.8 82 1.7 SSW 17 24 9 13 1016.9 1016.5 0.0
23/02:30am 16.2 13.8 12.7 80 1.9 SSW 17 24 9 13 1017.0 1016.6 0.0
23/02:00am 16.7 14.8 13.0 79 2.1 SSW 15 22 8 12 1017.0 1016.6 0.0
23/01:30am 17.1 15.3 13.2 78 2.2 SSW 15 19 8 10 1017.1 1016.7 0.0
23/01:00am 17.3 15.9 13.4 78 2.2 SSW 13 17 7 9 1017.2 1016.8 0.0
23/12:30am 17.4 14.9 13.5 78 2.2 SSW 19 22 10 12 1017.2 1016.8 0.0
23/12:00am 17.3 15.1 13.4 78 2.2 SSW 17 24 9 13 1017.1 1016.7 0.0
 
Date/Time
EDT
Temp
°C
App
Temp
°C
Dew
Point
°C
Rel
Hum
%
Delta-T
°C
Wind Press
QNH
hPa
Press
MSL
hPa
Rain since
9am
mm
Dir  Spd
km/h
Gust
km/h
Spd
kts
Gust
kts
22/11:30pm 17.5 15.4 13.6 78 2.2 SSW 17 20 9 11 1016.9 1016.5 0.0
22/11:00pm 17.8 16.2 13.9 78 2.2 SW 15 20 8 11 1016.7 1016.3 0.0
22/10:30pm 18.3 16.7 14.0 76 2.5 SSW 15 22 8 12 1016.5 1016.1 0.0
22/10:00pm 18.4 16.5 14.1 76 2.5 SSW 17 24 9 13 1016.4 1016.0 0.0
22/09:30pm 18.7 16.4 14.2 75 2.6 SSW 19 28 10 15 1016.1 1015.7 0.0
22/09:00pm 19.4 17.5 14.2 72 3.0 SSW 17 28 9 15 1015.8 1015.4 0.0
22/08:30pm 20.2 17.7 14.1 68 3.6 SSW 20 28 11 15 1014.8 1014.4 0.0
22/08:00pm 20.6 18.2 14.3 67 3.7 SSW 20 26 11 14 1014.1 1013.7 0.0
22/07:30pm 20.7 18.0 14.6 68 3.6 SSW 22 30 12 16 1013.7 1013.3 0.0
22/07:00pm 21.4 19.3 14.8 66 3.9 SSW 19 26 10 14 1013.5 1013.1 0.0
22/06:30pm 22.6 20.6 15.4 64 4.3 SSW 20 28 11 15 1013.0 1012.6 0.0
22/06:00pm 23.0 20.9 15.1 61 4.7 SSW 20 32 11 17 1012.9 1012.5 0.0
22/05:30pm 23.5 20.7 15.3 60 4.9 SSW 24 37 13 20 1012.9 1012.5 0.0
22/05:00pm 23.9 21.2 15.7 60 5.0 SSW 24 37 13 20 1013.0 1012.6 0.0
22/04:30pm 24.5 21.6 16.0 59 5.2 SSW 26 41 14 22 1012.9 1012.5 0.0
22/04:00pm 24.3 21.5 16.3 61 4.9 SSW 26 37 14 20 1012.8 1012.4 0.0
22/03:30pm 25.3 22.8 17.2 61 5.1 SSW 26 39 14 21 1012.9 1012.5 0.0
22/03:00pm 25.2 23.1 17.1 60 5.1 SW 24 33 13 18 1013.0 1012.6 0.0
22/02:30pm 25.2 23.8 16.9 60 5.2 SW 20 28 11 15 1013.1 1012.7 0.0
22/02:00pm 25.1 23.6 16.8 60 5.2 SSW 20 32 11 17 1013.3 1012.9 0.0
22/01:30pm 24.8 23.4 16.5 60 5.1 SSW 19 30 10 16 1013.5 1013.1 0.0
22/01:00pm 24.5 22.1 16.5 61 4.9 SSW 24 32 13 17 1013.8 1013.4 0.0
22/12:30pm 23.5 20.6 16.1 63 4.5 SSW 26 33 14 18 1014.1 1013.7 0.0
22/12:00pm 23.6 22.0 16.6 65 4.3 SSW 20 28 11 15 1014.5 1014.1 0.0
22/11:30am 23.2 21.6 16.5 66 4.1 S 20 33 11 18 1014.9 1014.5 0.0
22/11:00am 23.4 20.6 16.4 64 4.3 S 26 37 14 20 1015.0 1014.6 0.0
22/10:30am 21.3 20.8 16.9 76 2.7 SSW 15 20 8 11 1015.0 1014.6 0.0
22/10:00am 20.4 19.6 16.2 77 2.5 SSW 15 20 8 11 1015.2 1014.8 0.0
22/09:30am 19.8 18.7 16.3 80 2.1 SSW 17 22 9 12 1015.1 1014.7 0.0
22/09:00am 19.2 18.0 16.2 83 1.8 S 17 22 9 12 1014.9 1014.5 1.2
22/08:30am 18.1 17.3 16.1 88 1.2 SSW 15 20 8 11 1014.6 1014.2 1.2
22/08:00am 18.1 16.5 16.1 88 1.2 SSW 19 24 10 13 1014.6 1014.2 1.2
22/07:30am 18.1 16.5 16.1 88 1.2 SSW 19 24 10 13 1014.2 1013.8 1.2
22/07:00am 18.2 16.6 16.0 87 1.3 SSW 19 28 10 15 1013.6 1013.2 1.2
22/06:30am 18.6 16.9 16.2 86 1.4 SSW 20 30 11 16 1012.9 1012.5 1.2
22/06:00am 19.3 17.2 16.3 83 1.8 SSW 22 28 12 15 1012.5 1012.1 1.2
22/05:33am 20.2 20.2 18.1 88 1.3 SSW 15 22 8 12 1012.5 1012.1 1.2
22/05:30am 20.2 20.2 18.1 88 1.3 SSW 15 22 8 12 1012.4 1012.0 1.2
22/05:00am 20.2 21.5 19.4 95 0.5 SSW 11 17 6 9 1011.9 1011.5 1.2
22/04:30am 20.5 22.0 20.5 100 0.0 SSW 13 17 7 9 1012.1 1011.7 1.2
22/04:00am 20.2 22.9 20.2 100 0.0 NNE 6 7 3 4 1011.9 1011.5 1.2
22/03:30am 20.3 23.0 20.3 100 0.0 NNE 6 7 3 4 1011.7 1011.3 1.2
22/03:00am 20.2 22.9 20.2 100 0.0 NNE 6 7 3 4 1012.1 1011.7 1.2
22/02:38am 20.2 23.6 20.2 100 0.0 NNE 2 9 1 5 1012.1 1011.7 1.2
22/02:30am 20.0 23.3 20.0 100 0.0 NNE 2 6 1 3 1012.1 1011.7 1.2
22/02:18am 19.9 22.4 19.9 100 0.0 NNE 6 9 3 5 1011.8 1011.4 1.2
22/02:00am 19.9 22.2 19.9 100 0.0 NNE 7 9 4 5 1011.9 1011.5 1.2
22/01:56am 19.9 22.4 19.9 100 0.0 NNE 6 9 3 5 1011.9 1011.5 1.2
22/01:37am 19.5 23.0 19.5 100 0.0 CALM 0 0 0 0 1011.8 1011.4 1.2
22/01:30am 19.2 22.5 19.2 100 0.0 CALM 0 0 0 0 1011.6 1011.2 1.2
22/01:23am 19.2 22.5 19.2 100 0.0 CALM 0 0 0 0 1011.5 1011.1 1.2
22/01:00am 19.2 22.2 19.2 100 0.0 NNE 2 6 1 3 1011.4 1011.0 1.2
22/12:49am 19.2 21.4 19.2 100 0.0 NNE 6 6 3 3 1011.6 1011.2 1.2
22/12:31am 18.7 20.7 18.7 100 0.0 NNE 6 7 3 4 1011.6 1011.2 1.2
22/12:30am 18.7 20.7 18.7 100 0.0 NNE 6 7 3 4 1011.6 1011.2 1.2
22/12:00am 18.9 20.8 18.9 100 0.0 NNE 7 9 4 5 1011.5 1011.1 1.2
 
Date/Time
EDT
Temp
°C
App
Temp
°C
Dew
Point
°C
Rel
Hum
%
Delta-T
°C
Wind Press
QNH
hPa
Press
MSL
hPa
Rain since
9am
mm
Dir  Spd
km/h
Gust
km/h
Spd
kts
Gust
kts
21/11:55pm 18.9 21.3 18.9 100 0.0 NNE 4 9 2 5 1011.5 1011.1 1.2
21/11:35pm 19.0 22.2 18.8 99 0.1 CALM 0 0 0 0 1011.8 1011.4 1.2
21/11:30pm 19.0 22.2 18.8 99 0.1 CALM 0 0 0 0 1011.6 1011.2 1.2
21/11:27pm 19.1 22.3 18.9 99 0.1 CALM 0 0 0 0 1011.7 1011.3 1.2
21/11:00pm 19.7 23.2 19.5 99 0.1 CALM 0 0 0 0 1011.7 1011.3 1.2
21/10:48pm 19.8 23.3 19.6 99 0.1 CALM 0 0 0 0 1011.7 1011.3 1.2
21/10:30pm 19.8 23.3 19.6 99 0.1 CALM 0 0 0 0 1011.6 1011.2 1.2
21/10:00pm 20.3 22.7 19.6 96 0.4 NNE 6 6 3 3 1011.6 1011.2 1.2
21/09:30pm 20.8 23.4 20.1 96 0.5 NNE 6 6 3 3 1011.4 1011.0 1.2
21/09:00pm 21.3 25.0 19.9 92 0.9 CALM 0 0 0 0 1010.8 1010.4 1.2
21/08:30pm 21.8 24.2 20.1 90 1.1 NNE 7 9 4 5 1010.7 1010.3 1.2
21/08:00pm 22.5 24.5 20.0 86 1.6 NNE 9 11 5 6 1010.0 1009.6 1.2
21/07:30pm 23.0 24.3 20.1 84 1.9 NE 13 17 7 9 1009.8 1009.4 1.2
21/07:00pm 23.2 24.4 20.0 82 2.1 NNE 13 17 7 9 1009.8 1009.4 1.2
21/06:30pm 23.6 24.7 19.7 79 2.5 NNE 13 15 7 8 1010.1 1009.7 1.2
21/06:00pm 23.8 25.0 19.9 79 2.5 N 13 17 7 9 1010.1 1009.7 1.2
21/05:53pm 23.8 24.9 19.7 78 2.6 N 13 17 7 9 1010.2 1009.8 1.2
21/05:40pm 23.9 24.6 19.6 77 2.8 NNE 15 24 8 13 1010.1 1009.7 1.2
21/05:30pm 24.3 25.4 19.6 75 3.0 N 13 17 7 9 1010.1 1009.7 1.2
21/05:00pm 23.4 24.8 20.3 83 2.0 N 13 17 7 9 1010.3 1009.9 1.2
21/04:30pm 23.6 25.1 19.7 79 2.5 NNE 11 17 6 9 1010.4 1010.0 1.2
21/04:00pm 23.3 23.0 19.2 78 2.6 NNE 19 26 10 14 1010.4 1010.0 1.2
21/03:30pm 23.6 24.3 19.7 79 2.5 N 15 20 8 11 1010.8 1010.4 1.2
21/03:00pm 23.1 23.3 19.3 79 2.4 N 17 22 9 12 1011.0 1010.6 1.2
21/02:30pm 22.9 23.0 19.1 79 2.4 NNE 17 24 9 13 1011.2 1010.9 1.2
21/02:00pm 22.8 22.1 19.6 82 2.1 NE 22 30 12 16 1011.6 1011.2 1.2
21/01:30pm 23.2 22.8 19.4 79 2.4 NNE 20 24 11 13 1011.9 1011.5 1.2
21/01:00pm 23.3 24.0 20.4 84 1.9 NNE 17 20 9 11 1012.2 1011.8 1.2
21/12:30pm 22.8 24.4 20.7 88 1.4 NNE 13 24 7 13 1012.6 1012.2 1.2
21/12:06pm 21.6 24.4 20.9 96 0.5 NNE 7 9 4 5 1013.0 1012.6 1.2
21/12:00pm 21.5 23.7 20.5 94 0.6 NE 9 13 5 7 1013.0 1012.6 1.2
21/11:53am 21.3 22.5 19.9 92 0.9 NE 13 19 7 10 1013.1 1012.7 1.0
21/11:30am 22.1 23.3 19.8 87 1.5 NNE 13 19 7 10 1013.1 1012.7 0.4
21/11:00am 23.0 23.2 19.4 80 2.3 NE 17 22 9 12 1013.2 1012.8 0.0
21/10:30am 22.8 22.9 19.2 80 2.3 NE 17 24 9 13 1013.3 1012.9 0.0
21/10:00am 23.4 24.0 20.2 82 2.1 NE 17 20 9 11 1013.2 1012.8 0.0
21/09:30am 22.4 23.3 20.1 87 1.5 NE 15 19 8 10 1013.3 1012.9 0.0

Other Formats:

Comma delimited format used in spreadsheet applications
http://www.bom.gov.au/fwo/IDV60801/IDV60801.94874.axf

JavaScript Object Notation format (JSON) in row-major order
http://www.bom.gov.au/fwo/IDV60801/IDV60801.94874.json